Eems Servant — PBTI — position and weather

sailwx.info

Track history (hours):
 
Tides and Currents Weather Stations Pressure Air Temp Water Temp Dewpoint Dewpoint Depression Visibility Wind Speed Wind Dir Waves Ship Positions

Eems Servant

Last reported at 2017-Oct-16 18:04 UTC. Time now 2017-Oct-18 07:48 UTC.
Position N 53°05' E 001°15'.

Length 87 m; draft 4.8 m.

Type: Cargo ship. MMSI: 246236000.

Date/timePositionNaut miles runAvg speedWind from/ knotsBaromVisibWave heightAir tempDewpointWater temp
2017-Oct-16 18:04N 53°05' E 001°15'2 6.7
2017-Oct-16 17:45N 53°05' E 001°18'2 6.7
2017-Oct-16 17:29N 53°04' E 001°21'3 6.9
2017-Oct-16 17:00N 53°04' E 001°27'4 7.3
2017-Oct-16 16:30N 53°04' E 001°33'4 7.7
2017-Oct-16 15:56N 53°04' E 001°40'4 8.1
2017-Oct-16 15:30N 53°04' E 001°46'252 8.2
2017-Oct-15 08:44N 53°55' E 008°41'4 8.6
2017-Oct-15 08:19N 53°52' E 008°44'2 7.5
2017-Oct-15 08:00N 53°51' E 008°47'4 7.2
2017-Oct-15 07:30N 53°51' E 008°53'3 6.8
2017-Oct-15 07:00N 53°51' E 008°58'3 6.0
2017-Oct-15 06:30N 53°52' E 009°03'3 6.4
2017-Oct-15 06:00N 53°53' E 009°08'1 1.5
2017-Oct-15 05:30N 53°54' E 009°09'4 6.9
2017-Oct-15 04:59N 53°56' E 009°13'13 8.1
2017-Oct-15 03:24N 54°08' E 009°21'3 8.4
2017-Oct-15 03:00N 54°10' E 009°26'4 8.3
2017-Oct-15 02:30N 54°12' E 009°32'4 8.1
2017-Oct-15 02:00N 54°15' E 009°37'4 7.2
2017-Oct-15 01:30N 54°18' E 009°41'55 6.9
2017-Oct-14 17:33N 54°36' E 011°09'33 8.0
2017-Oct-14 13:27N 54°05' E 011°27'3 7.8
2017-Oct-14 13:00N 54°02' E 011°24'4 7.7
2017-Oct-14 12:30N 53°59' E 011°20'4 8.2
2017-Oct-14 12:01N 53°57' E 011°25'3 5.6
2017-Oct-14 11:30N 53°54' E 011°27'0 0.2
2017-Oct-14 11:00N 53°54' E 011°28'0 0.0
2017-Oct-14 10:30N 53°54' E 011°28'0 0.0
2017-Oct-14 10:00N 53°54' E 011°28'0 0.0
2017-Oct-14 09:30N 53°54' E 011°28'0 0.0
2017-Oct-14 09:00N 53°54' E 011°28'0 0.0
2017-Oct-14 08:30N 53°54' E 011°28'0 0.0
2017-Oct-14 08:00N 53°54' E 011°28'0 0.0
2017-Oct-14 07:30N 53°54' E 011°28'0 0.0
2017-Oct-14 07:00N 53°54' E 011°28'0 0.0
2017-Oct-14 06:30N 53°54' E 011°28'0 0.0
2017-Oct-14 06:00N 53°54' E 011°28'0 0.1
2017-Oct-14 05:30N 53°54' E 011°28'0 0.3
2017-Oct-14 05:00N 53°54' E 011°27'0 0.0
2017-Oct-14 04:30N 53°54' E 011°27'0 0.0
2017-Oct-14 04:00N 53°54' E 011°27'0 0.0
2017-Oct-14 03:30N 53°54' E 011°27'0 0.0
2017-Oct-14 03:00N 53°54' E 011°27'0 0.0
2017-Oct-14 02:30N 53°54' E 011°27'0 0.0
2017-Oct-14 02:00N 53°54' E 011°27'0 0.0
2017-Oct-14 01:30N 53°54' E 011°27'0 0.0
2017-Oct-14 01:00N 53°54' E 011°27'0 0.0
2017-Oct-14 00:30N 53°54' E 011°27'0 0.0
2017-Oct-14 00:00N 53°54' E 011°27'0 0.0
2017-Oct-13 23:30N 53°54' E 011°27'0 0.0
2017-Oct-13 23:00N 53°54' E 011°27'0 0.0
2017-Oct-13 22:30N 53°54' E 011°27'0 0.0
2017-Oct-13 22:00N 53°54' E 011°27'0 0.0
2017-Oct-13 21:30N 53°54' E 011°27'0 0.0
2017-Oct-13 21:00N 53°54' E 011°27'0 0.0
2017-Oct-13 20:27N 53°54' E 011°27'0 0.0
2017-Oct-13 20:00N 53°54' E 011°27'0 0.0
2017-Oct-13 19:30N 53°54' E 011°27'0 0.0
2017-Oct-13 19:00N 53°54' E 011°27'0 0.0
2017-Oct-13 18:30N 53°54' E 011°27'0 0.0
2017-Oct-13 18:00N 53°54' E 011°27'0 0.0
2017-Oct-13 17:30N 53°54' E 011°27'0 0.0
2017-Oct-13 17:00N 53°54' E 011°27'0 0.0
2017-Oct-13 16:30N 53°54' E 011°27'0 0.0
2017-Oct-13 08:39N 53°54' E 011°27'0 0.0
2017-Oct-13 08:30N 53°54' E 011°27'0 0.0
2017-Oct-13 08:00N 53°54' E 011°27'0 0.0
2017-Oct-13 07:30N 53°54' E 011°27'0 0.0
2017-Oct-13 07:00N 53°54' E 011°27'0 0.0
2017-Oct-13 06:30N 53°54' E 011°27'0 0.0
2017-Oct-13 06:00N 53°54' E 011°27'0 0.0
2017-Oct-13 05:30N 53°54' E 011°27'0 0.0
2017-Oct-13 05:00N 53°54' E 011°27'0 0.0
2017-Oct-13 04:30N 53°54' E 011°27'0 0.0
2017-Oct-13 04:00N 53°54' E 011°27'0 0.0
2017-Oct-13 03:30N 53°54' E 011°27'0 0.0
2017-Oct-13 03:00N 53°54' E 011°27'0 0.0
2017-Oct-13 02:30N 53°54' E 011°27'0 0.0
2017-Oct-13 02:00N 53°54' E 011°27'0 0.0
2017-Oct-13 01:30N 53°54' E 011°27'0 0.0
2017-Oct-13 01:00N 53°54' E 011°27'0 0.0
2017-Oct-13 00:30N 53°54' E 011°27'0 0.0
2017-Oct-13 00:00N 53°54' E 011°27'0 0.0
2017-Oct-12 23:30N 53°54' E 011°27'0 0.0
2017-Oct-12 23:00N 53°54' E 011°27'0 0.0
2017-Oct-12 22:30N 53°54' E 011°27'0 0.0
2017-Oct-12 22:00N 53°54' E 011°27'0 0.0
2017-Oct-12 21:30N 53°54' E 011°27'0 0.0
2017-Oct-12 21:00N 53°54' E 011°27'0 0.0
2017-Oct-12 20:30N 53°54' E 011°27'0 0.0
2017-Oct-12 20:00N 53°54' E 011°27'0 0.0
2017-Oct-12 19:30N 53°54' E 011°27'0 0.0
2017-Oct-12 19:00N 53°54' E 011°27'0 0.0
2017-Oct-12 18:30N 53°54' E 011°27'0 0.0
2017-Oct-12 18:00N 53°54' E 011°27'0 0.0
2017-Oct-12 17:30N 53°54' E 011°27'0 0.0
2017-Oct-12 17:00N 53°54' E 011°27'0 0.0
2017-Oct-12 16:30N 53°54' E 011°27'0 0.0
2017-Oct-12 16:00N 53°54' E 011°27'0 0.0
2017-Oct-12 15:30N 53°54' E 011°27'0 0.0
2017-Oct-12 15:00N 53°54' E 011°27'0 0.0
2017-Oct-12 14:30N 53°54' E 011°27'0 0.0
2017-Oct-12 14:00N 53°54' E 011°27'0 0.0
2017-Oct-12 13:30N 53°54' E 011°27'0 0.0
2017-Oct-12 13:00N 53°54' E 011°27'0 0.0
2017-Oct-12 12:30N 53°54' E 011°27'0 0.0
2017-Oct-12 11:54N 53°54' E 011°27'0 0.0
2017-Oct-12 11:30N 53°54' E 011°27'0 0.0
2017-Oct-12 11:00N 53°54' E 011°27'0 0.0
2017-Oct-12 10:30N 53°54' E 011°27'0 0.0
2017-Oct-12 10:00N 53°54' E 011°27'0 0.0
2017-Oct-12 09:30N 53°54' E 011°27'0 0.0
2017-Oct-12 09:00N 53°54' E 011°27'0 0.0
2017-Oct-12 08:30N 53°54' E 011°27'0 0.1
2017-Oct-12 08:00N 53°54' E 011°27'4 7.4
2017-Oct-12 07:30N 53°57' E 011°24'4 7.9
2017-Oct-12 07:01N 54°01' E 011°23'25 8.8
2017-Oct-12 04:12N 54°26' E 011°21'2 9.4
2017-Oct-12 04:00N 54°28' E 011°21'5 9.2
2017-Oct-12 03:30N 54°32' E 011°19'510.4
2017-Oct-12 03:01N 54°34' E 011°11'510.7
2017-Oct-12 02:30N 54°35' E 011°02'510.7
2017-Oct-12 02:00N 54°34' E 010°52'40 7.5
2017-Oct-11 20:41N 54°22' E 009°47'1 8.4
2017-Oct-11 20:30N 54°21' E 009°45'4 7.8
2017-Oct-11 20:00N 54°18' E 009°41'4 7.4
2017-Oct-11 19:30N 54°15' E 009°37'4 8.0
2017-Oct-11 19:00N 54°12' E 009°32'4 8.6
2017-Oct-11 18:30N 54°10' E 009°26'6 7.6
2017-Oct-11 17:45N 54°06' E 009°20'2 8.5
2017-Oct-11 17:30N 54°04' E 009°19'4 8.5
2017-Oct-11 17:00N 53°59' E 009°17'  
Track history (hours):
 
Tides and Currents Weather Stations Pressure Air Temp Water Temp Dewpoint Dewpoint Depression Visibility Wind Speed Wind Dir Waves Ship Positions

Eems Servant

Last reported at 2017-Oct-16 18:04 UTC. Time now 2017-Oct-18 07:48 UTC.
Position N 53°05' E 001°15'.

Length 87 m; draft 4.8 m.

Type: Cargo ship. MMSI: 246236000.

Date/timePositionNaut miles runAvg speedWind from/ knotsBaromVisibWave heightAir tempDewpointWater temp
2017-Oct-16 18:04N 53°05' E 001°15'2 6.7
2017-Oct-16 17:45N 53°05' E 001°18'2 6.7
2017-Oct-16 17:29N 53°04' E 001°21'3 6.9
2017-Oct-16 17:00N 53°04' E 001°27'4 7.3
2017-Oct-16 16:30N 53°04' E 001°33'4 7.7
2017-Oct-16 15:56N 53°04' E 001°40'4 8.1
2017-Oct-16 15:30N 53°04' E 001°46'252 8.2
2017-Oct-15 08:44N 53°55' E 008°41'4 8.6
2017-Oct-15 08:19N 53°52' E 008°44'2 7.5
2017-Oct-15 08:00N 53°51' E 008°47'4 7.2
2017-Oct-15 07:30N 53°51' E 008°53'3 6.8
2017-Oct-15 07:00N 53°51' E 008°58'3 6.0
2017-Oct-15 06:30N 53°52' E 009°03'3 6.4
2017-Oct-15 06:00N 53°53' E 009°08'1 1.5
2017-Oct-15 05:30N 53°54' E 009°09'4 6.9
2017-Oct-15 04:59N 53°56' E 009°13'13 8.1
2017-Oct-15 03:24N 54°08' E 009°21'3 8.4
2017-Oct-15 03:00N 54°10' E 009°26'4 8.3
2017-Oct-15 02:30N 54°12' E 009°32'4 8.1
2017-Oct-15 02:00N 54°15' E 009°37'4 7.2
2017-Oct-15 01:30N 54°18' E 009°41'55 6.9
2017-Oct-14 17:33N 54°36' E 011°09'33 8.0
2017-Oct-14 13:27N 54°05' E 011°27'3 7.8
2017-Oct-14 13:00N 54°02' E 011°24'4 7.7
2017-Oct-14 12:30N 53°59' E 011°20'4 8.2
2017-Oct-14 12:01N 53°57' E 011°25'3 5.6
2017-Oct-14 11:30N 53°54' E 011°27'0 0.2
2017-Oct-14 11:00N 53°54' E 011°28'0 0.0
2017-Oct-14 10:30N 53°54' E 011°28'0 0.0
2017-Oct-14 10:00N 53°54' E 011°28'0 0.0
2017-Oct-14 09:30N 53°54' E 011°28'0 0.0
2017-Oct-14 09:00N 53°54' E 011°28'0 0.0
2017-Oct-14 08:30N 53°54' E 011°28'0 0.0
2017-Oct-14 08:00N 53°54' E 011°28'0 0.0
2017-Oct-14 07:30N 53°54' E 011°28'0 0.0
2017-Oct-14 07:00N 53°54' E 011°28'0 0.0
2017-Oct-14 06:30N 53°54' E 011°28'0 0.0
2017-Oct-14 06:00N 53°54' E 011°28'0 0.1
2017-Oct-14 05:30N 53°54' E 011°28'0 0.3
2017-Oct-14 05:00N 53°54' E 011°27'0 0.0
2017-Oct-14 04:30N 53°54' E 011°27'0 0.0
2017-Oct-14 04:00N 53°54' E 011°27'0 0.0
2017-Oct-14 03:30N 53°54' E 011°27'0 0.0
2017-Oct-14 03:00N 53°54' E 011°27'0 0.0
2017-Oct-14 02:30N 53°54' E 011°27'0 0.0
2017-Oct-14 02:00N 53°54' E 011°27'0 0.0
2017-Oct-14 01:30N 53°54' E 011°27'0 0.0
2017-Oct-14 01:00N 53°54' E 011°27'0 0.0
2017-Oct-14 00:30N 53°54' E 011°27'0 0.0
2017-Oct-14 00:00N 53°54' E 011°27'0 0.0
2017-Oct-13 23:30N 53°54' E 011°27'0 0.0
2017-Oct-13 23:00N 53°54' E 011°27'0 0.0
2017-Oct-13 22:30N 53°54' E 011°27'0 0.0
2017-Oct-13 22:00N 53°54' E 011°27'0 0.0
2017-Oct-13 21:30N 53°54' E 011°27'0 0.0
2017-Oct-13 21:00N 53°54' E 011°27'0 0.0
2017-Oct-13 20:27N 53°54' E 011°27'0 0.0
2017-Oct-13 20:00N 53°54' E 011°27'0 0.0
2017-Oct-13 19:30N 53°54' E 011°27'0 0.0
2017-Oct-13 19:00N 53°54' E 011°27'0 0.0
2017-Oct-13 18:30N 53°54' E 011°27'0 0.0
2017-Oct-13 18:00N 53°54' E 011°27'0 0.0
2017-Oct-13 17:30N 53°54' E 011°27'0 0.0
2017-Oct-13 17:00N 53°54' E 011°27'0 0.0
2017-Oct-13 16:30N 53°54' E 011°27'0 0.0
2017-Oct-13 08:39N 53°54' E 011°27'0 0.0
2017-Oct-13 08:30N 53°54' E 011°27'0 0.0
2017-Oct-13 08:00N 53°54' E 011°27'0 0.0
2017-Oct-13 07:30N 53°54' E 011°27'0 0.0
2017-Oct-13 07:00N 53°54' E 011°27'0 0.0
2017-Oct-13 06:30N 53°54' E 011°27'0 0.0
2017-Oct-13 06:00N 53°54' E 011°27'0 0.0
2017-Oct-13 05:30N 53°54' E 011°27'0 0.0
2017-Oct-13 05:00N 53°54' E 011°27'0 0.0
2017-Oct-13 04:30N 53°54' E 011°27'0 0.0
2017-Oct-13 04:00N 53°54' E 011°27'0 0.0
2017-Oct-13 03:30N 53°54' E 011°27'0 0.0
2017-Oct-13 03:00N 53°54' E 011°27'0 0.0
2017-Oct-13 02:30N 53°54' E 011°27'0 0.0
2017-Oct-13 02:00N 53°54' E 011°27'0 0.0
2017-Oct-13 01:30N 53°54' E 011°27'0 0.0
2017-Oct-13 01:00N 53°54' E 011°27'0 0.0
2017-Oct-13 00:30N 53°54' E 011°27'0 0.0
2017-Oct-13 00:00N 53°54' E 011°27'0 0.0
2017-Oct-12 23:30N 53°54' E 011°27'0 0.0
2017-Oct-12 23:00N 53°54' E 011°27'0 0.0
2017-Oct-12 22:30N 53°54' E 011°27'0 0.0
2017-Oct-12 22:00N 53°54' E 011°27'0 0.0
2017-Oct-12 21:30N 53°54' E 011°27'0 0.0
2017-Oct-12 21:00N 53°54' E 011°27'0 0.0
2017-Oct-12 20:30N 53°54' E 011°27'0 0.0
2017-Oct-12 20:00N 53°54' E 011°27'0 0.0
2017-Oct-12 19:30N 53°54' E 011°27'0 0.0
2017-Oct-12 19:00N 53°54' E 011°27'0 0.0
2017-Oct-12 18:30N 53°54' E 011°27'0 0.0
2017-Oct-12 18:00N 53°54' E 011°27'0 0.0
2017-Oct-12 17:30N 53°54' E 011°27'0 0.0
2017-Oct-12 17:00N 53°54' E 011°27'0 0.0
2017-Oct-12 16:30N 53°54' E 011°27'0 0.0
2017-Oct-12 16:00N 53°54' E 011°27'0 0.0
2017-Oct-12 15:30N 53°54' E 011°27'0 0.0
2017-Oct-12 15:00N 53°54' E 011°27'0 0.0
2017-Oct-12 14:30N 53°54' E 011°27'0 0.0
2017-Oct-12 14:00N 53°54' E 011°27'0 0.0
2017-Oct-12 13:30N 53°54' E 011°27'0 0.0
2017-Oct-12 13:00N 53°54' E 011°27'0 0.0
2017-Oct-12 12:30N 53°54' E 011°27'0 0.0
2017-Oct-12 11:54N 53°54' E 011°27'0 0.0
2017-Oct-12 11:30N 53°54' E 011°27'0 0.0
2017-Oct-12 11:00N 53°54' E 011°27'0 0.0
2017-Oct-12 10:30N 53°54' E 011°27'0 0.0
2017-Oct-12 10:00N 53°54' E 011°27'0 0.0
2017-Oct-12 09:30N 53°54' E 011°27'0 0.0
2017-Oct-12 09:00N 53°54' E 011°27'0 0.0
2017-Oct-12 08:30N 53°54' E 011°27'0 0.1
2017-Oct-12 08:00N 53°54' E 011°27'4 7.4
2017-Oct-12 07:30N 53°57' E 011°24'4 7.9
2017-Oct-12 07:01N 54°01' E 011°23'25 8.8
2017-Oct-12 04:12N 54°26' E 011°21'2 9.4
2017-Oct-12 04:00N 54°28' E 011°21'5 9.2
2017-Oct-12 03:30N 54°32' E 011°19'510.4
2017-Oct-12 03:01N 54°34' E 011°11'510.7
2017-Oct-12 02:30N 54°35' E 011°02'510.7
2017-Oct-12 02:00N 54°34' E 010°52'40 7.5
2017-Oct-11 20:41N 54°22' E 009°47'1 8.4
2017-Oct-11 20:30N 54°21' E 009°45'4 7.8
2017-Oct-11 20:00N 54°18' E 009°41'4 7.4
2017-Oct-11 19:30N 54°15' E 009°37'4 8.0
2017-Oct-11 19:00N 54°12' E 009°32'4 8.6
2017-Oct-11 18:30N 54°10' E 009°26'6 7.6
2017-Oct-11 17:45N 54°06' E 009°20'2 8.5
2017-Oct-11 17:30N 54°04' E 009°19'4 8.5
2017-Oct-11 17:00N 53°59' E 009°17'  

Dump ship's entire track history